createdAt,value
2023-04-18T00:00:28.510Z,37.47
2023-04-18T00:02:59.709Z,37.58
2023-04-18T00:05:29.039Z,37.57
2023-04-18T00:07:57.284Z,37.43
2023-04-18T00:10:25.880Z,37.56
2023-04-18T00:12:54.793Z,37.56
2023-04-18T00:15:22.850Z,37.68
2023-04-18T00:17:51.044Z,37.55
2023-04-18T00:20:20.636Z,37.60
2023-04-18T00:22:48.726Z,37.48
2023-04-18T00:25:16.839Z,37.54
2023-04-18T00:27:44.988Z,37.52
2023-04-18T00:30:13.846Z,37.53
2023-04-18T00:32:42.030Z,37.59
2023-04-18T00:35:10.386Z,37.51
2023-04-18T00:37:39.844Z,37.58
2023-04-18T00:40:09.001Z,37.60
2023-04-18T00:42:37.090Z,37.43
2023-04-18T00:45:05.865Z,37.51
2023-04-18T00:47:34.001Z,37.45
2023-04-18T00:50:02.278Z,37.41
2023-04-18T00:52:30.608Z,37.50
2023-04-18T00:55:00.264Z,37.36
2023-04-18T00:57:28.730Z,37.47
2023-04-18T00:59:56.932Z,37.41
2023-04-18T01:02:26.217Z,37.35
2023-04-18T01:04:54.602Z,37.33
2023-04-18T01:07:22.693Z,37.33
2023-04-18T01:09:50.818Z,37.42
2023-04-18T01:12:20.320Z,37.35
2023-04-18T01:14:48.373Z,37.41
2023-04-18T01:17:16.426Z,37.45
2023-04-18T01:19:44.555Z,37.29
2023-04-18T01:22:15.126Z,37.50
2023-04-18T01:24:44.639Z,37.35
2023-04-18T01:27:13.600Z,37.38
2023-04-18T01:29:42.008Z,37.25
2023-04-18T01:32:10.080Z,37.38
2023-04-18T01:34:38.171Z,37.21
2023-04-18T01:37:06.278Z,37.37
2023-04-18T01:39:34.359Z,37.22
2023-04-18T01:42:03.907Z,37.35
2023-04-18T01:44:31.968Z,37.39
2023-04-18T01:47:00.124Z,37.25
2023-04-18T01:49:28.323Z,37.42
2023-04-18T01:51:56.389Z,37.28
2023-04-18T01:54:24.460Z,37.29
2023-04-18T01:56:52.589Z,37.30
2023-04-18T01:59:22.420Z,37.29
2023-04-18T02:01:50.543Z,37.33
2023-04-18T02:04:18.702Z,37.20
2023-04-18T02:06:46.767Z,37.35
2023-04-18T02:09:14.842Z,37.23
2023-04-18T02:11:42.894Z,37.25
2023-04-18T02:14:11.026Z,37.29
2023-04-18T02:16:40.628Z,37.32
2023-04-18T02:19:08.763Z,37.24
2023-04-18T02:21:36.834Z,37.27
2023-04-18T02:24:05.257Z,37.21
2023-04-18T02:26:33.324Z,37.22
2023-04-18T02:29:01.426Z,37.25
2023-04-18T02:31:29.769Z,37.13
2023-04-18T02:33:59.246Z,37.22
2023-04-18T02:36:28.173Z,37.17
2023-04-18T02:38:56.598Z,37.08
2023-04-18T02:41:24.686Z,37.18
2023-04-18T02:43:52.799Z,37.25
2023-04-18T02:46:20.883Z,37.20
2023-04-18T02:48:48.999Z,37.13
2023-04-18T02:51:20.104Z,37.17
2023-04-18T02:53:48.447Z,37.22
2023-04-18T02:56:17.520Z,37.15
2023-04-18T02:58:45.561Z,37.18
2023-04-18T03:01:13.680Z,37.17
2023-04-18T03:03:41.739Z,37.17
2023-04-18T03:06:09.921Z,37.01
2023-04-18T03:08:39.442Z,37.15
2023-04-18T03:11:07.509Z,37.13
2023-04-18T03:13:35.915Z,37.11
2023-04-18T03:16:04.252Z,37.10
2023-04-18T03:18:32.443Z,37.17
2023-04-18T03:21:00.806Z,37.14
2023-04-18T03:23:28.888Z,37.11
2023-04-18T03:25:58.449Z,37.22
2023-04-18T03:28:26.589Z,37.20
2023-04-18T03:30:54.674Z,37.21
2023-04-18T03:33:22.811Z,37.21
2023-04-18T03:35:50.992Z,37.23
2023-04-18T03:38:19.126Z,37.09
2023-04-18T03:40:47.223Z,37.18
2023-04-18T03:43:16.684Z,37.17
2023-04-18T03:45:47.456Z,37.22
2023-04-18T03:48:15.686Z,37.23
2023-04-18T03:50:43.898Z,37.21
2023-04-18T03:53:11.998Z,37.21
2023-04-18T03:55:40.399Z,37.12
2023-04-18T03:58:08.458Z,37.28
2023-04-18T04:00:37.996Z,37.16
2023-04-18T04:03:07.020Z,37.12
2023-04-18T04:05:35.364Z,37.07
2023-04-18T04:08:03.445Z,37.06
2023-04-18T04:10:31.531Z,37.07
2023-04-18T04:12:59.600Z,37.19
2023-04-18T04:15:27.688Z,37.07
2023-04-18T04:17:57.219Z,37.10
2023-04-18T04:20:25.934Z,37.04
2023-04-18T04:22:54.089Z,37.11
2023-04-18T04:25:23.951Z,36.96
2023-04-18T04:27:53.795Z,37.09
2023-04-18T04:30:22.346Z,37.11
2023-04-18T04:32:50.702Z,37.22
2023-04-18T04:35:20.423Z,37.07
2023-04-18T04:37:48.571Z,37.21
2023-04-18T04:40:17.640Z,37.22
2023-04-18T04:42:46.053Z,37.31
2023-04-18T04:45:14.246Z,37.21
2023-04-18T04:47:42.357Z,37.10
2023-04-18T04:50:14.885Z,37.13
2023-04-18T04:52:44.504Z,37.20
2023-04-18T04:55:12.701Z,37.15
2023-04-18T04:57:40.838Z,37.12
2023-04-18T05:00:10.113Z,37.14
2023-04-18T05:02:38.726Z,37.08
2023-04-18T05:05:07.250Z,37.08
2023-04-18T05:07:35.406Z,37.11
2023-04-18T05:10:05.706Z,37.06
2023-04-18T05:12:33.815Z,37.03
2023-04-18T05:15:01.912Z,37.21
2023-04-18T05:17:29.997Z,37.11
2023-04-18T05:19:58.131Z,37.15
2023-04-18T05:22:26.656Z,37.08
2023-04-18T05:24:54.780Z,36.97
2023-04-18T05:27:24.285Z,37.04
2023-04-18T05:29:53.779Z,37.14
2023-04-18T05:32:22.253Z,37.02
2023-04-18T05:34:51.190Z,37.00
2023-04-18T05:37:19.278Z,36.96
2023-04-18T05:39:47.486Z,37.01
2023-04-18T05:42:15.684Z,37.09
2023-04-18T05:44:45.152Z,37.10
2023-04-18T05:47:13.202Z,37.02
2023-04-18T05:49:41.502Z,36.98
2023-04-18T05:52:09.608Z,36.93
2023-04-18T05:54:37.693Z,36.92
2023-04-18T05:57:05.747Z,37.07
2023-04-18T05:59:33.876Z,37.03
2023-04-18T06:02:03.424Z,36.94
2023-04-18T06:04:31.726Z,37.01
2023-04-18T06:07:00.052Z,36.98
2023-04-18T06:09:28.136Z,37.06
2023-04-18T06:11:57.913Z,36.94
2023-04-18T06:14:26.136Z,37.02
2023-04-18T06:16:54.237Z,36.92
2023-04-18T06:19:23.716Z,36.99
2023-04-18T06:21:52.040Z,36.96
2023-04-18T06:24:20.116Z,36.94
2023-04-18T06:26:48.487Z,36.97
2023-04-18T06:29:18.113Z,36.98
2023-04-18T06:31:48.418Z,36.90
2023-04-18T06:34:16.652Z,36.97
2023-04-18T06:36:46.090Z,36.91
2023-04-18T06:39:14.153Z,36.95
2023-04-18T06:41:42.185Z,36.94
2023-04-18T06:44:10.258Z,36.92
2023-04-18T06:46:38.348Z,36.89
2023-04-18T06:49:06.402Z,36.95
2023-04-18T06:51:34.434Z,36.98
2023-04-18T06:54:03.884Z,36.83
2023-04-18T06:56:33.009Z,36.90
2023-04-18T06:59:02.342Z,36.97
2023-04-18T07:01:32.659Z,36.85
2023-04-18T07:04:00.924Z,37.00
2023-04-18T07:06:29.070Z,36.97
2023-04-18T07:09:00.216Z,36.93
2023-04-18T07:11:29.911Z,36.90
2023-04-18T07:13:57.962Z,36.87
2023-04-18T07:16:26.028Z,36.84
2023-04-18T07:18:54.136Z,36.84
2023-04-18T07:21:22.158Z,36.82
2023-04-18T07:23:50.220Z,36.92
2023-04-18T07:26:18.296Z,36.79
2023-04-18T07:28:47.835Z,36.84
2023-04-18T07:31:16.713Z,36.84
2023-04-18T07:33:44.901Z,36.75
2023-04-18T07:36:13.030Z,36.80
2023-04-18T07:38:41.340Z,36.80
2023-04-18T07:41:09.392Z,36.75
2023-04-18T07:43:38.735Z,36.81
2023-04-18T07:46:08.559Z,36.73
2023-04-18T07:48:36.608Z,36.81
2023-04-18T07:51:05.137Z,36.76
2023-04-18T07:53:33.187Z,36.78
2023-04-18T07:56:01.213Z,36.75
2023-04-18T07:58:29.276Z,36.65
2023-04-18T08:00:57.488Z,36.70
2023-04-18T08:03:27.972Z,36.91
2023-04-18T08:05:56.792Z,36.86
2023-04-18T08:08:24.886Z,36.71
2023-04-18T08:10:52.931Z,36.65
2023-04-18T08:13:21.374Z,36.72
2023-04-18T08:15:49.850Z,36.74
2023-04-18T08:18:17.904Z,36.77
2023-04-18T08:20:48.308Z,36.76
2023-04-18T08:23:16.387Z,36.81
2023-04-18T08:25:44.501Z,36.70
2023-04-18T08:28:12.693Z,36.70
2023-04-18T08:30:40.973Z,36.64
2023-04-18T08:33:09.164Z,36.73
2023-04-18T08:35:37.230Z,36.69
2023-04-18T08:38:06.794Z,36.82
2023-04-18T08:40:34.847Z,36.73
2023-04-18T08:43:05.116Z,36.71
2023-04-18T08:45:33.429Z,36.75
2023-04-18T08:48:03.671Z,36.67
2023-04-18T08:50:33.048Z,36.72
2023-04-18T08:53:01.997Z,36.69
2023-04-18T08:55:33.719Z,36.79
2023-04-18T08:58:02.011Z,36.57
2023-04-18T09:00:30.605Z,36.59
2023-04-18T09:02:59.211Z,36.61
2023-04-18T09:05:28.527Z,36.71
2023-04-18T09:07:57.409Z,36.57
2023-04-18T09:10:33.112Z,36.71
2023-04-18T09:13:03.554Z,36.64
2023-04-18T09:15:32.544Z,36.61
2023-04-18T09:18:03.069Z,36.70
2023-04-18T09:20:38.037Z,36.62
2023-04-18T09:23:10.630Z,36.58
2023-04-18T09:25:46.776Z,36.66
2023-04-18T09:28:27.048Z,36.53
2023-04-18T09:30:56.281Z,36.65
2023-04-18T09:33:29.351Z,36.65
2023-04-18T09:36:00.303Z,36.65
2023-04-18T09:38:41.261Z,36.52
2023-04-18T09:41:11.277Z,36.69
2023-04-18T09:43:39.472Z,36.72
2023-04-18T09:46:09.288Z,36.63
2023-04-18T09:48:37.535Z,36.51
2023-04-18T09:51:08.331Z,36.81
2023-04-18T09:53:40.686Z,36.62
2023-04-18T09:56:15.894Z,36.81
2023-04-18T09:58:47.866Z,36.69
2023-04-18T10:01:16.837Z,36.63
2023-04-18T10:03:48.192Z,36.80
2023-04-18T10:06:17.909Z,36.75
2023-04-18T10:08:46.661Z,36.68
2023-04-18T10:11:17.965Z,36.63
2023-04-18T10:13:49.336Z,36.73
2023-04-18T10:16:18.291Z,36.88
2023-04-18T10:18:46.482Z,36.77
2023-04-18T10:21:14.610Z,36.72
2023-04-18T10:23:42.789Z,36.70
2023-04-18T10:26:11.830Z,36.67
2023-04-18T10:28:56.929Z,36.37
2023-04-18T10:31:26.249Z,36.65
2023-04-18T10:34:04.536Z,36.84
2023-04-18T10:36:33.431Z,36.78
2023-04-18T10:39:04.236Z,36.84
2023-04-18T10:41:33.497Z,36.65
2023-04-18T10:44:20.183Z,36.45
2023-04-18T10:47:24.264Z,36.43
2023-04-18T10:49:57.643Z,36.63
2023-04-18T10:52:26.245Z,36.67
2023-04-18T10:54:59.582Z,36.63
2023-04-18T10:57:39.008Z,36.55
2023-04-18T11:00:14.448Z,36.76
2023-04-18T11:02:49.290Z,36.77
2023-04-18T11:05:21.888Z,36.66
2023-04-18T11:07:50.497Z,36.81
2023-04-18T11:10:20.365Z,36.65
2023-04-18T11:12:48.963Z,36.64
2023-04-18T11:15:22.320Z,36.68
2023-04-18T11:17:58.072Z,36.53
2023-04-18T11:20:26.721Z,36.72
2023-04-18T11:22:56.482Z,36.69
2023-04-18T11:25:27.038Z,36.67
2023-04-18T11:27:55.939Z,36.64
2023-04-18T11:30:25.433Z,36.75
2023-04-18T11:32:54.373Z,36.69
2023-04-18T11:35:22.474Z,36.68
2023-04-18T11:37:51.386Z,36.76
2023-04-18T11:40:19.598Z,36.66
2023-04-18T11:42:47.715Z,36.65
2023-04-18T11:45:16.760Z,36.55
2023-04-18T11:47:48.345Z,36.74
2023-04-18T11:50:16.469Z,36.68
2023-04-18T11:52:44.656Z,36.63
2023-04-18T11:55:17.748Z,36.64
2023-04-18T11:57:52.590Z,36.58
2023-04-18T12:00:31.614Z,36.80
2023-04-18T12:03:02.926Z,36.75
2023-04-18T12:05:32.613Z,36.76
2023-04-18T12:08:08.121Z,36.65
2023-04-18T12:10:37.049Z,36.68
2023-04-18T12:13:08.647Z,36.69
2023-04-18T12:15:39.942Z,36.69
2023-04-18T12:18:09.636Z,36.79
2023-04-18T12:20:39.372Z,36.72
2023-04-18T12:23:08.113Z,36.72
2023-04-18T12:25:36.572Z,36.70
2023-04-18T12:28:14.895Z,36.72
2023-04-18T12:30:43.924Z,36.77
2023-04-18T12:33:13.430Z,36.59
2023-04-18T12:35:42.573Z,36.66
2023-04-18T12:38:10.654Z,36.71
2023-04-18T12:40:40.823Z,36.88
2023-04-18T12:43:10.674Z,36.69
2023-04-18T12:45:38.888Z,36.73
2023-04-18T12:48:07.753Z,36.76
2023-04-18T12:50:37.330Z,36.74
2023-04-18T12:53:06.154Z,36.63
2023-04-18T12:55:34.370Z,36.67
2023-04-18T12:58:02.579Z,36.73
2023-04-18T13:00:32.636Z,36.78
2023-04-18T13:03:01.232Z,36.76
2023-04-18T13:05:33.701Z,36.79
2023-04-18T13:10:34.682Z,36.64
2023-04-18T13:13:02.830Z,36.45
2023-04-18T13:15:30.954Z,36.56
2023-04-18T13:18:04.444Z,36.63
2023-04-18T13:20:33.146Z,36.68
2023-04-18T13:23:01.199Z,36.58
2023-04-18T13:25:30.750Z,36.71
2023-04-18T13:28:00.940Z,36.65
2023-04-18T13:30:29.317Z,36.70
2023-04-18T13:32:57.646Z,36.62
2023-04-18T13:35:25.786Z,36.72
2023-04-18T13:37:53.984Z,36.70
2023-04-18T13:40:22.261Z,36.66
2023-04-18T13:42:51.769Z,36.64
2023-04-18T13:45:20.602Z,36.60
2023-04-18T13:47:48.853Z,36.70
2023-04-18T13:50:16.972Z,36.71
2023-04-18T13:52:45.176Z,36.66
2023-04-18T13:55:13.506Z,36.71
2023-04-18T13:57:41.552Z,36.67
2023-04-18T14:00:14.045Z,36.92
2023-04-18T14:02:42.598Z,36.79
2023-04-18T14:05:11.451Z,36.69
2023-04-18T14:07:39.646Z,36.66
2023-04-18T14:10:08.775Z,36.81
2023-04-18T14:12:36.889Z,36.90
2023-04-18T14:15:05.575Z,36.93
2023-04-18T14:17:35.208Z,36.93
2023-04-18T14:20:03.473Z,36.88
2023-04-18T14:22:31.541Z,36.78
2023-04-18T14:24:59.648Z,36.85
2023-04-18T14:27:27.855Z,36.85
2023-04-18T14:29:55.985Z,36.94
2023-04-18T14:32:24.073Z,36.79
2023-04-18T14:34:53.732Z,36.79
2023-04-18T14:37:22.397Z,36.86
2023-04-18T14:39:50.976Z,36.96
2023-04-18T14:42:19.521Z,36.86
2023-04-18T14:44:47.551Z,36.82
2023-04-18T14:47:15.921Z,36.75
2023-04-18T14:49:44.003Z,36.70
2023-04-18T14:52:13.476Z,36.83
2023-04-18T14:54:41.479Z,36.69
2023-04-18T14:57:10.352Z,36.84
2023-04-18T14:59:38.376Z,36.72
2023-04-18T15:02:06.549Z,36.78
2023-04-18T15:04:34.792Z,36.71
2023-04-18T15:07:02.938Z,36.86
2023-04-18T15:09:37.411Z,36.77
2023-04-18T15:12:06.656Z,36.71
2023-04-18T15:14:35.055Z,36.78
2023-04-18T15:17:04.611Z,36.73
2023-04-18T15:19:33.048Z,36.83
2023-04-18T15:22:01.395Z,36.82
2023-04-18T15:24:29.520Z,36.69
2023-04-18T15:26:59.121Z,36.91
2023-04-18T15:29:27.303Z,36.76
2023-04-18T15:31:55.366Z,36.71
2023-04-18T15:34:23.450Z,36.82
2023-04-18T15:36:51.538Z,36.84
2023-04-18T15:39:23.343Z,36.75
2023-04-18T15:41:54.584Z,36.85
2023-04-18T15:44:24.386Z,36.71
2023-04-18T15:46:52.432Z,36.70
2023-04-18T15:49:20.569Z,36.75
2023-04-18T15:51:48.621Z,36.74
2023-04-18T15:54:16.898Z,36.90
2023-04-18T15:56:45.130Z,36.80
2023-04-18T15:59:13.785Z,36.82
2023-04-18T16:01:45.686Z,36.74
2023-04-18T16:04:14.599Z,36.76
2023-04-18T16:06:43.305Z,36.90
2023-04-18T16:09:11.377Z,36.81
2023-04-18T16:11:39.420Z,36.94
2023-04-18T16:14:07.779Z,36.86
2023-04-18T16:16:35.873Z,36.82
2023-04-18T16:19:05.758Z,36.80
2023-04-18T16:21:33.848Z,36.89
2023-04-18T16:24:02.139Z,36.88
2023-04-18T16:26:30.277Z,36.88
2023-04-18T16:28:58.377Z,36.91
2023-04-18T16:31:26.554Z,36.78
2023-04-18T16:33:54.831Z,36.83
2023-04-18T16:36:24.325Z,36.83
2023-04-18T16:38:52.380Z,36.74
2023-04-18T16:41:20.407Z,36.89
2023-04-18T16:43:48.420Z,36.93
2023-04-18T16:46:16.492Z,36.87
2023-04-18T16:48:45.373Z,36.76
2023-04-18T16:51:13.816Z,36.76
2023-04-18T16:53:43.251Z,36.89
2023-04-18T16:56:11.449Z,36.91
2023-04-18T16:58:39.505Z,36.87
2023-04-18T17:01:08.368Z,36.89
2023-04-18T17:03:36.764Z,36.79
2023-04-18T17:06:05.951Z,36.85
2023-04-18T17:08:34.269Z,36.90
2023-04-18T17:11:04.016Z,36.90
2023-04-18T17:13:32.475Z,36.46
2023-04-18T17:16:00.809Z,36.83
2023-04-18T17:18:29.493Z,36.96
2023-04-18T17:20:57.695Z,36.93
2023-04-18T17:23:25.794Z,36.93
2023-04-18T17:25:53.888Z,36.93
2023-04-18T17:28:25.225Z,36.77
2023-04-18T17:30:53.273Z,36.91
2023-04-18T17:33:21.363Z,36.82
2023-04-18T17:35:50.381Z,36.76
2023-04-18T17:38:18.426Z,36.88
2023-04-18T17:40:46.502Z,36.95
2023-04-18T17:43:14.556Z,36.96
2023-04-18T17:45:44.203Z,36.89
2023-04-18T17:48:12.380Z,36.98
2023-04-18T17:50:42.258Z,36.94
2023-04-18T17:53:12.052Z,36.96
2023-04-18T17:55:41.494Z,36.95
2023-04-18T17:58:09.687Z,36.89
2023-04-18T18:00:37.731Z,36.93
2023-04-18T18:03:09.364Z,36.86
2023-04-18T18:05:37.534Z,36.83
2023-04-18T18:08:05.977Z,36.85
2023-04-18T18:10:34.907Z,36.98
2023-04-18T18:13:03.340Z,37.00
2023-04-18T18:15:31.454Z,37.00
2023-04-18T18:17:59.648Z,37.03
2023-04-18T18:20:29.480Z,36.95
2023-04-18T18:22:59.586Z,37.03
2023-04-18T18:25:28.717Z,37.06
2023-04-18T18:27:56.876Z,36.96
2023-04-18T18:30:25.036Z,36.98
2023-04-18T18:32:54.325Z,37.05
2023-04-18T18:35:22.561Z,36.88
2023-04-18T18:37:52.124Z,36.89
2023-04-18T18:40:20.447Z,36.96
2023-04-18T18:42:51.417Z,37.02
2023-04-18T18:45:21.238Z,36.98
2023-04-18T18:47:49.469Z,37.13
2023-04-18T18:50:17.812Z,36.92
2023-04-18T18:52:45.964Z,36.87
2023-04-18T18:55:16.421Z,37.13
2023-04-18T18:57:44.613Z,36.99
2023-04-18T19:00:13.797Z,36.88
2023-04-18T19:02:42.039Z,37.07
2023-04-18T19:05:12.609Z,37.09
2023-04-18T19:07:42.464Z,37.21
2023-04-18T19:10:11.472Z,37.06
2023-04-18T19:12:40.985Z,37.07
2023-04-18T19:15:12.567Z,37.18
2023-04-18T19:17:41.784Z,37.09
2023-04-18T19:20:10.589Z,37.08
2023-04-18T19:22:39.140Z,37.20
2023-04-18T19:25:08.507Z,37.30
2023-04-18T19:27:38.818Z,37.24
2023-04-18T19:30:10.693Z,37.25
2023-04-18T19:32:38.952Z,37.17
2023-04-18T19:35:09.929Z,37.22
2023-04-18T19:37:38.396Z,37.28
2023-04-18T19:40:07.829Z,37.51
2023-04-18T19:42:35.874Z,37.44
2023-04-18T19:45:04.263Z,37.54
2023-04-18T19:47:34.052Z,37.45
2023-04-18T19:50:02.478Z,37.42
2023-04-18T19:52:30.555Z,37.41
2023-04-18T19:54:58.755Z,37.43
2023-04-18T19:57:28.884Z,37.50
2023-04-18T19:59:56.914Z,37.58
2023-04-18T20:02:25.159Z,37.64
2023-04-18T20:04:54.870Z,37.59
2023-04-18T20:07:26.233Z,37.66
2023-04-18T20:09:54.462Z,37.60
2023-04-18T20:12:22.475Z,37.58
2023-04-18T20:14:50.522Z,37.59
2023-04-18T20:17:19.110Z,37.66
2023-04-18T20:19:49.882Z,37.75
2023-04-18T20:22:19.978Z,37.63
2023-04-18T20:24:48.807Z,37.80
2023-04-18T20:27:20.451Z,37.59
2023-04-18T20:29:48.624Z,37.73
2023-04-18T20:32:16.864Z,37.71
2023-04-18T20:34:45.787Z,37.73
2023-04-18T20:37:18.711Z,37.71
2023-04-18T20:39:48.322Z,37.64
2023-04-18T20:42:17.571Z,37.66
2023-04-18T20:44:46.953Z,37.79
2023-04-18T20:47:15.920Z,37.67
2023-04-18T20:49:44.153Z,37.71
2023-04-18T20:52:14.388Z,37.79
2023-04-18T20:54:42.719Z,37.77
2023-04-18T20:57:12.173Z,37.77
2023-04-18T20:59:40.246Z,37.82
2023-04-18T21:02:09.319Z,37.68
2023-04-18T21:04:38.056Z,37.72
2023-04-18T21:07:06.172Z,37.81
2023-04-18T21:09:36.648Z,37.82
2023-04-18T21:12:05.123Z,37.91
2023-04-18T21:14:36.130Z,37.88
2023-04-18T21:17:04.162Z,37.81
2023-04-18T21:19:32.327Z,37.79
2023-04-18T21:22:00.608Z,37.76
2023-04-18T21:24:28.711Z,37.67
2023-04-18T21:26:57.875Z,37.75
2023-04-18T21:29:25.924Z,37.79
2023-04-18T21:31:56.073Z,37.96
2023-04-18T21:34:24.308Z,38.05
2023-04-18T21:36:52.387Z,37.87
2023-04-18T21:39:20.563Z,37.96
2023-04-18T21:41:48.636Z,37.92
2023-04-18T21:44:18.845Z,37.99
2023-04-18T21:46:47.064Z,37.93
2023-04-18T21:49:17.539Z,37.96
2023-04-18T21:51:46.208Z,37.95
2023-04-18T21:54:14.406Z,37.85
2023-04-18T21:56:42.967Z,37.88
2023-04-18T21:59:11.122Z,37.90
2023-04-18T22:01:39.421Z,37.93
2023-04-18T22:04:07.930Z,37.91
2023-04-18T22:06:37.660Z,37.86
2023-04-18T22:09:06.283Z,37.97
2023-04-18T22:11:34.354Z,37.96
2023-04-18T22:14:02.390Z,37.95
2023-04-18T22:16:30.650Z,37.94
2023-04-18T22:18:58.664Z,38.00
2023-04-18T22:21:26.688Z,37.90
2023-04-18T22:23:56.234Z,37.98
2023-04-18T22:26:24.343Z,37.99
2023-04-18T22:28:52.509Z,37.91
2023-04-18T22:31:20.666Z,37.98
2023-04-18T22:33:48.813Z,38.01
2023-04-18T22:36:16.894Z,37.99
2023-04-18T22:38:45.009Z,38.03
2023-04-18T22:41:14.535Z,37.96
2023-04-18T22:43:42.657Z,37.99
2023-04-18T22:46:10.875Z,38.20
2023-04-18T22:48:38.959Z,38.06
2023-04-18T22:51:07.625Z,37.99
2023-04-18T22:53:35.718Z,38.05
2023-04-18T22:56:03.845Z,38.04
2023-04-18T22:58:33.933Z,38.13
2023-04-18T23:01:02.100Z,38.06
2023-04-18T23:03:34.325Z,37.88
2023-04-18T23:06:02.708Z,37.97
2023-04-18T23:08:30.978Z,37.97
2023-04-18T23:10:59.092Z,38.08
2023-04-18T23:13:27.328Z,38.00
2023-04-18T23:15:56.874Z,37.99
2023-04-18T23:18:25.035Z,37.97
2023-04-18T23:20:53.069Z,38.02
2023-04-18T23:23:21.169Z,37.94
2023-04-18T23:25:49.249Z,37.96
2023-04-18T23:28:17.340Z,37.93
2023-04-18T23:30:45.546Z,38.14
2023-04-18T23:33:15.059Z,37.93
2023-04-18T23:35:43.166Z,38.05
2023-04-18T23:38:11.257Z,37.98
2023-04-18T23:40:39.379Z,37.93
2023-04-18T23:43:07.465Z,38.01
2023-04-18T23:45:36.670Z,37.89
2023-04-18T23:48:05.020Z,37.91
2023-04-18T23:50:35.873Z,37.89
2023-04-18T23:53:04.041Z,37.88
2023-04-18T23:55:32.285Z,38.00
2023-04-18T23:58:00.758Z,37.89
